York — 9VED8 — position and weather

sailwx.info

Track history (hours):
 
Tides and Currents Weather Stations Pressure Air Temp Water Temp Dewpoint Dewpoint Depression Visibility Wind Speed Wind Dir Waves Ship Positions

York

Last reported at 2014-Aug-15 20:32 UTC. Time now 2014-Aug-21 14:07 UTC.
Position N 45°22' E 037°21'.

Length 100 m; draft 4.2 m.

Type: Tanker. MMSI: 565525000.

Date/timePositionNaut miles runAvg speedWind from/ knotsBaromVisibWave heightAir tempDewpointWater temp
2014-Aug-15 20:32N 45°22' E 037°21'0 0.0
2014-Aug-15 19:11N 45°22' E 037°21'0 0.0
2014-Aug-15 18:32N 45°22' E 037°21'0 0.0
2014-Aug-15 17:32N 45°22' E 037°21'0 0.0
2014-Aug-15 16:08N 45°22' E 037°21'0 0.0
2014-Aug-15 15:32N 45°22' E 037°21'0 0.0
2014-Aug-15 14:32N 45°22' E 037°21'0 0.0
2014-Aug-15 13:32N 45°22' E 037°21'0 0.0
2014-Aug-15 11:14N 45°22' E 037°21'0 0.0
2014-Aug-15 08:29N 45°22' E 037°20'  
2014-Aug-11 10:27N 45°06' E 036°31'1213.0
2014-Aug-11 09:33N 44°54' E 036°32'1211.9
2014-Aug-11 08:33N 44°45' E 036°22'1413.6
2014-Aug-11 07:33N 44°37' E 036°05'1313.4
2014-Aug-11 06:33N 44°30' E 035°50'1313.1
2014-Aug-11 05:33N 44°23' E 035°35'1312.8
2014-Aug-11 04:33N 44°15' E 035°20'1313.0
2014-Aug-11 03:33N 44°08' E 035°05'1313.1
2014-Aug-11 02:33N 44°01' E 034°50'1313.4
2014-Aug-11 01:33N 43°53' E 034°34'1413.4
2014-Aug-11 00:33N 43°46' E 034°18'28813.0
2014-Aug-10 02:22N 40°60' E 029°00'6 7.0
2014-Aug-10 01:34N 40°54' E 028°57'4 0.2
2014-Aug-08 21:21N 40°57' E 028°52'0 0.0
2014-Aug-08 19:27N 40°57' E 028°52'0 0.0
2014-Aug-08 15:09N 40°57' E 028°52'0 0.0
2014-Aug-08 12:21N 40°57' E 028°52'0 0.0
2014-Aug-08 11:33N 40°57' E 028°52'0 0.0
2014-Aug-07 15:22N 40°57' E 028°52'0 0.1
2014-Aug-07 13:17N 40°57' E 028°52'2 1.9
2014-Aug-07 12:07N 40°56' E 028°55'711.4
2014-Aug-07 11:33N 40°52' E 029°02'1212.4
2014-Aug-07 10:33N 40°46' E 029°16'13 0.4
2014-Aug-05 23:07N 40°45' E 029°33'4 7.7
2014-Aug-05 22:33N 40°45' E 029°27'1010.4
2014-Aug-05 21:33N 40°45' E 029°14'1212.3
2014-Aug-05 20:33N 40°51' E 028°60'  
Track history (hours):
 
Tides and Currents Weather Stations Pressure Air Temp Water Temp Dewpoint Dewpoint Depression Visibility Wind Speed Wind Dir Waves Ship Positions

York

Last reported at 2014-Aug-15 20:32 UTC. Time now 2014-Aug-21 14:07 UTC.
Position N 45°22' E 037°21'.

Length 100 m; draft 4.2 m.

Type: Tanker. MMSI: 565525000.

Date/timePositionNaut miles runAvg speedWind from/ knotsBaromVisibWave heightAir tempDewpointWater temp
2014-Aug-15 20:32N 45°22' E 037°21'0 0.0
2014-Aug-15 19:11N 45°22' E 037°21'0 0.0
2014-Aug-15 18:32N 45°22' E 037°21'0 0.0
2014-Aug-15 17:32N 45°22' E 037°21'0 0.0
2014-Aug-15 16:08N 45°22' E 037°21'0 0.0
2014-Aug-15 15:32N 45°22' E 037°21'0 0.0
2014-Aug-15 14:32N 45°22' E 037°21'0 0.0
2014-Aug-15 13:32N 45°22' E 037°21'0 0.0
2014-Aug-15 11:14N 45°22' E 037°21'0 0.0
2014-Aug-15 08:29N 45°22' E 037°20'  
2014-Aug-11 10:27N 45°06' E 036°31'1213.0
2014-Aug-11 09:33N 44°54' E 036°32'1211.9
2014-Aug-11 08:33N 44°45' E 036°22'1413.6
2014-Aug-11 07:33N 44°37' E 036°05'1313.4
2014-Aug-11 06:33N 44°30' E 035°50'1313.1
2014-Aug-11 05:33N 44°23' E 035°35'1312.8
2014-Aug-11 04:33N 44°15' E 035°20'1313.0
2014-Aug-11 03:33N 44°08' E 035°05'1313.1
2014-Aug-11 02:33N 44°01' E 034°50'1313.4
2014-Aug-11 01:33N 43°53' E 034°34'1413.4
2014-Aug-11 00:33N 43°46' E 034°18'28813.0
2014-Aug-10 02:22N 40°60' E 029°00'6 7.0
2014-Aug-10 01:34N 40°54' E 028°57'4 0.2
2014-Aug-08 21:21N 40°57' E 028°52'0 0.0
2014-Aug-08 19:27N 40°57' E 028°52'0 0.0
2014-Aug-08 15:09N 40°57' E 028°52'0 0.0
2014-Aug-08 12:21N 40°57' E 028°52'0 0.0
2014-Aug-08 11:33N 40°57' E 028°52'0 0.0
2014-Aug-07 15:22N 40°57' E 028°52'0 0.1
2014-Aug-07 13:17N 40°57' E 028°52'2 1.9
2014-Aug-07 12:07N 40°56' E 028°55'711.4
2014-Aug-07 11:33N 40°52' E 029°02'1212.4
2014-Aug-07 10:33N 40°46' E 029°16'13 0.4
2014-Aug-05 23:07N 40°45' E 029°33'4 7.7
2014-Aug-05 22:33N 40°45' E 029°27'1010.4
2014-Aug-05 21:33N 40°45' E 029°14'1212.3
2014-Aug-05 20:33N 40°51' E 028°60'  

Dump ship's entire track history